sensor_id;sensor_type;location;lat;lon;timestamp;P1;durP1;ratioP1;P2;durP2;ratioP2
32216;SDS011;67098;51.140;4.088;2023-05-16T00:01:08;24.60;;;3.17;;
32216;SDS011;67098;51.140;4.088;2023-05-16T00:03:34;21.27;;;3.05;;
32216;SDS011;67098;51.140;4.088;2023-05-16T00:06:02;22.77;;;3.13;;
32216;SDS011;67098;51.140;4.088;2023-05-16T00:08:29;10.45;;;2.25;;
32216;SDS011;67098;51.140;4.088;2023-05-16T00:10:55;18.23;;;2.80;;
32216;SDS011;67098;51.140;4.088;2023-05-16T00:13:21;24.15;;;3.63;;
32216;SDS011;67098;51.140;4.088;2023-05-16T00:15:50;12.13;;;2.42;;
32216;SDS011;67098;51.140;4.088;2023-05-16T00:18:16;18.17;;;2.50;;
32216;SDS011;67098;51.140;4.088;2023-05-16T00:20:43;15.48;;;2.60;;
32216;SDS011;67098;51.140;4.088;2023-05-16T00:23:09;15.40;;;2.60;;
32216;SDS011;67098;51.140;4.088;2023-05-16T00:25:37;19.30;;;2.67;;
32216;SDS011;67098;51.140;4.088;2023-05-16T00:28:02;16.13;;;2.75;;
32216;SDS011;67098;51.140;4.088;2023-05-16T00:30:28;19.90;;;2.55;;
32216;SDS011;67098;51.140;4.088;2023-05-16T00:32:54;12.27;;;2.33;;
32216;SDS011;67098;51.140;4.088;2023-05-16T00:35:20;16.65;;;2.95;;
32216;SDS011;67098;51.140;4.088;2023-05-16T00:37:46;15.25;;;2.63;;
32216;SDS011;67098;51.140;4.088;2023-05-16T00:40:11;17.35;;;2.47;;
32216;SDS011;67098;51.140;4.088;2023-05-16T00:42:37;13.48;;;2.10;;
32216;SDS011;67098;51.140;4.088;2023-05-16T00:45:04;19.25;;;2.78;;
32216;SDS011;67098;51.140;4.088;2023-05-16T00:47:31;14.68;;;2.75;;
32216;SDS011;67098;51.140;4.088;2023-05-16T00:49:56;13.98;;;2.88;;
32216;SDS011;67098;51.140;4.088;2023-05-16T00:52:23;16.55;;;3.70;;
32216;SDS011;67098;51.140;4.088;2023-05-16T00:54:49;17.17;;;3.60;;
32216;SDS011;67098;51.140;4.088;2023-05-16T00:57:17;21.40;;;3.92;;
32216;SDS011;67098;51.140;4.088;2023-05-16T00:59:43;17.45;;;3.40;;
32216;SDS011;67098;51.140;4.088;2023-05-16T01:02:10;20.88;;;3.47;;
32216;SDS011;67098;51.140;4.088;2023-05-16T01:04:37;15.02;;;3.00;;
32216;SDS011;67098;51.140;4.088;2023-05-16T01:07:03;16.63;;;3.08;;
32216;SDS011;67098;51.140;4.088;2023-05-16T01:09:29;26.55;;;3.58;;
32216;SDS011;67098;51.140;4.088;2023-05-16T01:14:38;20.08;;;2.92;;
32216;SDS011;67098;51.140;4.088;2023-05-16T01:17:28;17.00;;;2.70;;
32216;SDS011;67098;51.140;4.088;2023-05-16T01:20:31;14.48;;;2.40;;
32216;SDS011;67098;51.140;4.088;2023-05-16T01:26:25;17.33;;;2.28;;
32216;SDS011;67098;51.140;4.088;2023-05-16T01:28:52;12.88;;;2.67;;
32216;SDS011;67098;51.140;4.088;2023-05-16T01:31:22;19.92;;;2.95;;
32216;SDS011;67098;51.140;4.088;2023-05-16T01:33:48;16.67;;;2.60;;
32216;SDS011;67098;51.140;4.088;2023-05-16T01:42:09;18.17;;;2.33;;
32216;SDS011;67098;51.140;4.088;2023-05-16T01:44:42;12.55;;;2.30;;
32216;SDS011;67098;51.140;4.088;2023-05-16T01:47:13;10.15;;;2.17;;
32216;SDS011;67098;51.140;4.088;2023-05-16T01:50:03;14.02;;;2.45;;
32216;SDS011;67098;51.140;4.088;2023-05-16T01:52:39;15.13;;;2.08;;
32216;SDS011;67098;51.140;4.088;2023-05-16T01:55:15;13.85;;;2.22;;
32216;SDS011;67098;51.140;4.088;2023-05-16T01:57:47;15.20;;;3.08;;
32216;SDS011;67098;51.140;4.088;2023-05-16T02:00:14;16.02;;;2.28;;
32216;SDS011;67098;51.140;4.088;2023-05-16T02:02:40;20.05;;;2.70;;
32216;SDS011;67098;51.140;4.088;2023-05-16T02:05:05;17.52;;;2.30;;
32216;SDS011;67098;51.140;4.088;2023-05-16T02:07:32;14.15;;;2.60;;
32216;SDS011;67098;51.140;4.088;2023-05-16T02:09:58;8.65;;;2.22;;
32216;SDS011;67098;51.140;4.088;2023-05-16T02:12:24;13.73;;;2.45;;
32216;SDS011;67098;51.140;4.088;2023-05-16T02:14:49;13.13;;;2.45;;
32216;SDS011;67098;51.140;4.088;2023-05-16T02:17:15;12.02;;;2.25;;
32216;SDS011;67098;51.140;4.088;2023-05-16T02:19:41;14.25;;;2.92;;
32216;SDS011;67098;51.140;4.088;2023-05-16T02:22:06;20.27;;;3.05;;
32216;SDS011;67098;51.140;4.088;2023-05-16T02:24:32;17.92;;;3.15;;
32216;SDS011;67098;51.140;4.088;2023-05-16T02:26:58;14.00;;;2.10;;
32216;SDS011;67098;51.140;4.088;2023-05-16T02:29:24;20.35;;;2.75;;
32216;SDS011;67098;51.140;4.088;2023-05-16T02:31:49;15.02;;;2.80;;
32216;SDS011;67098;51.140;4.088;2023-05-16T02:34:15;15.10;;;3.00;;
32216;SDS011;67098;51.140;4.088;2023-05-16T02:36:40;20.25;;;2.92;;
32216;SDS011;67098;51.140;4.088;2023-05-16T02:39:06;18.77;;;3.17;;
32216;SDS011;67098;51.140;4.088;2023-05-16T02:41:34;13.00;;;2.45;;
32216;SDS011;67098;51.140;4.088;2023-05-16T02:43:59;18.63;;;3.20;;
32216;SDS011;67098;51.140;4.088;2023-05-16T02:46:27;16.77;;;3.13;;
32216;SDS011;67098;51.140;4.088;2023-05-16T02:48:57;14.90;;;2.83;;
32216;SDS011;67098;51.140;4.088;2023-05-16T02:51:24;13.68;;;2.47;;
32216;SDS011;67098;51.140;4.088;2023-05-16T02:53:51;12.45;;;2.97;;
32216;SDS011;67098;51.140;4.088;2023-05-16T02:56:18;10.10;;;2.00;;
32216;SDS011;67098;51.140;4.088;2023-05-16T02:58:46;19.33;;;2.58;;
32216;SDS011;67098;51.140;4.088;2023-05-16T03:01:13;15.65;;;2.70;;
32216;SDS011;67098;51.140;4.088;2023-05-16T03:03:39;11.02;;;2.30;;
32216;SDS011;67098;51.140;4.088;2023-05-16T03:06:05;22.60;;;3.08;;
32216;SDS011;67098;51.140;4.088;2023-05-16T03:08:31;14.02;;;2.45;;
32216;SDS011;67098;51.140;4.088;2023-05-16T03:10:57;15.40;;;3.08;;
32216;SDS011;67098;51.140;4.088;2023-05-16T03:13:23;11.95;;;2.03;;
32216;SDS011;67098;51.140;4.088;2023-05-16T03:15:49;9.90;;;2.95;;
32216;SDS011;67098;51.140;4.088;2023-05-16T03:18:14;12.07;;;2.58;;
32216;SDS011;67098;51.140;4.088;2023-05-16T03:20:40;16.15;;;2.85;;
32216;SDS011;67098;51.140;4.088;2023-05-16T03:23:06;19.13;;;2.50;;
32216;SDS011;67098;51.140;4.088;2023-05-16T03:25:35;11.73;;;2.13;;
32216;SDS011;67098;51.140;4.088;2023-05-16T03:28:04;8.88;;;1.98;;
32216;SDS011;67098;51.140;4.088;2023-05-16T03:30:34;11.85;;;2.47;;
32216;SDS011;67098;51.140;4.088;2023-05-16T03:33:00;11.93;;;2.30;;
32216;SDS011;67098;51.140;4.088;2023-05-16T03:35:26;15.98;;;2.22;;
32216;SDS011;67098;51.140;4.088;2023-05-16T03:37:52;11.90;;;2.53;;
32216;SDS011;67098;51.140;4.088;2023-05-16T03:40:18;9.55;;;2.40;;
32216;SDS011;67098;51.140;4.088;2023-05-16T03:42:44;15.90;;;2.88;;
32216;SDS011;67098;51.140;4.088;2023-05-16T03:45:10;14.90;;;2.83;;
32216;SDS011;67098;51.140;4.088;2023-05-16T03:47:36;16.95;;;2.40;;
32216;SDS011;67098;51.140;4.088;2023-05-16T03:50:02;13.77;;;2.92;;
32216;SDS011;67098;51.140;4.088;2023-05-16T03:52:28;15.68;;;2.17;;
32216;SDS011;67098;51.140;4.088;2023-05-16T03:54:54;14.73;;;2.75;;
32216;SDS011;67098;51.140;4.088;2023-05-16T03:57:19;12.05;;;2.55;;
32216;SDS011;67098;51.140;4.088;2023-05-16T03:59:45;14.80;;;2.30;;
32216;SDS011;67098;51.140;4.088;2023-05-16T04:02:10;20.80;;;2.88;;
32216;SDS011;67098;51.140;4.088;2023-05-16T04:04:36;12.77;;;2.40;;
32216;SDS011;67098;51.140;4.088;2023-05-16T04:07:02;17.35;;;2.42;;
32216;SDS011;67098;51.140;4.088;2023-05-16T04:09:28;10.68;;;2.13;;
32216;SDS011;67098;51.140;4.088;2023-05-16T04:11:53;13.93;;;2.30;;
32216;SDS011;67098;51.140;4.088;2023-05-16T04:14:23;12.70;;;2.25;;
32216;SDS011;67098;51.140;4.088;2023-05-16T04:16:48;12.32;;;2.00;;
32216;SDS011;67098;51.140;4.088;2023-05-16T04:19:14;6.35;;;2.00;;
32216;SDS011;67098;51.140;4.088;2023-05-16T04:21:40;12.82;;;1.88;;
32216;SDS011;67098;51.140;4.088;2023-05-16T04:24:06;14.07;;;2.65;;
32216;SDS011;67098;51.140;4.088;2023-05-16T04:26:32;18.08;;;2.95;;
32216;SDS011;67098;51.140;4.088;2023-05-16T04:28:58;14.43;;;2.47;;
32216;SDS011;67098;51.140;4.088;2023-05-16T04:31:26;11.57;;;2.50;;
32216;SDS011;67098;51.140;4.088;2023-05-16T04:33:52;8.77;;;2.10;;
32216;SDS011;67098;51.140;4.088;2023-05-16T04:36:18;13.68;;;2.63;;
32216;SDS011;67098;51.140;4.088;2023-05-16T04:38:44;9.70;;;2.05;;
32216;SDS011;67098;51.140;4.088;2023-05-16T04:41:13;16.05;;;2.58;;
32216;SDS011;67098;51.140;4.088;2023-05-16T04:43:39;10.48;;;2.22;;
32216;SDS011;67098;51.140;4.088;2023-05-16T04:46:06;12.55;;;2.17;;
32216;SDS011;67098;51.140;4.088;2023-05-16T04:48:32;17.35;;;2.53;;
32216;SDS011;67098;51.140;4.088;2023-05-16T04:50:58;12.85;;;2.60;;
32216;SDS011;67098;51.140;4.088;2023-05-16T04:53:24;12.27;;;2.47;;
32216;SDS011;67098;51.140;4.088;2023-05-16T04:55:50;19.05;;;3.05;;
32216;SDS011;67098;51.140;4.088;2023-05-16T04:58:16;15.80;;;2.35;;
32216;SDS011;67098;51.140;4.088;2023-05-16T05:00:42;9.05;;;2.63;;
32216;SDS011;67098;51.140;4.088;2023-05-16T05:03:08;17.05;;;2.50;;
32216;SDS011;67098;51.140;4.088;2023-05-16T05:05:33;12.07;;;2.10;;
32216;SDS011;67098;51.140;4.088;2023-05-16T05:08:00;10.32;;;1.80;;
32216;SDS011;67098;51.140;4.088;2023-05-16T05:10:26;7.88;;;2.50;;
32216;SDS011;67098;51.140;4.088;2023-05-16T05:12:52;11.50;;;2.45;;
32216;SDS011;67098;51.140;4.088;2023-05-16T05:15:18;12.77;;;2.65;;
32216;SDS011;67098;51.140;4.088;2023-05-16T05:17:44;14.18;;;2.05;;
32216;SDS011;67098;51.140;4.088;2023-05-16T05:20:10;13.38;;;2.05;;
32216;SDS011;67098;51.140;4.088;2023-05-16T05:22:37;14.02;;;2.40;;
32216;SDS011;67098;51.140;4.088;2023-05-16T05:25:03;12.70;;;2.03;;
32216;SDS011;67098;51.140;4.088;2023-05-16T05:27:30;13.75;;;2.38;;
32216;SDS011;67098;51.140;4.088;2023-05-16T05:29:55;15.57;;;2.38;;
32216;SDS011;67098;51.140;4.088;2023-05-16T05:32:21;15.35;;;2.42;;
32216;SDS011;67098;51.140;4.088;2023-05-16T05:34:47;10.57;;;2.45;;
32216;SDS011;67098;51.140;4.088;2023-05-16T05:37:13;15.32;;;2.42;;
32216;SDS011;67098;51.140;4.088;2023-05-16T05:39:39;13.48;;;2.83;;
32216;SDS011;67098;51.140;4.088;2023-05-16T05:42:05;13.75;;;1.88;;
32216;SDS011;67098;51.140;4.088;2023-05-16T05:44:31;10.10;;;1.80;;
32216;SDS011;67098;51.140;4.088;2023-05-16T05:46:57;13.40;;;2.75;;
32216;SDS011;67098;51.140;4.088;2023-05-16T05:49:23;15.63;;;3.72;;
32216;SDS011;67098;51.140;4.088;2023-05-16T05:51:50;14.15;;;3.55;;
32216;SDS011;67098;51.140;4.088;2023-05-16T05:54:19;11.57;;;1.95;;
32216;SDS011;67098;51.140;4.088;2023-05-16T05:56:45;17.38;;;2.88;;
32216;SDS011;67098;51.140;4.088;2023-05-16T05:59:11;12.38;;;2.10;;
32216;SDS011;67098;51.140;4.088;2023-05-16T06:01:37;16.75;;;2.80;;
32216;SDS011;67098;51.140;4.088;2023-05-16T06:04:03;15.32;;;2.50;;
32216;SDS011;67098;51.140;4.088;2023-05-16T06:06:29;16.02;;;2.28;;
32216;SDS011;67098;51.140;4.088;2023-05-16T06:08:56;10.73;;;1.90;;
32216;SDS011;67098;51.140;4.088;2023-05-16T06:11:22;13.68;;;2.60;;
32216;SDS011;67098;51.140;4.088;2023-05-16T06:13:49;13.50;;;2.90;;
32216;SDS011;67098;51.140;4.088;2023-05-16T06:16:15;12.25;;;1.90;;
32216;SDS011;67098;51.140;4.088;2023-05-16T06:18:41;12.68;;;2.25;;
32216;SDS011;67098;51.140;4.088;2023-05-16T06:21:07;12.73;;;2.13;;
32216;SDS011;67098;51.140;4.088;2023-05-16T06:23:33;18.58;;;2.30;;
32216;SDS011;67098;51.140;4.088;2023-05-16T06:26:00;9.50;;;1.58;;
32216;SDS011;67098;51.140;4.088;2023-05-16T06:28:28;11.00;;;2.03;;
32216;SDS011;67098;51.140;4.088;2023-05-16T06:30:54;11.65;;;2.03;;
32216;SDS011;67098;51.140;4.088;2023-05-16T06:33:20;14.90;;;1.67;;
32216;SDS011;67098;51.140;4.088;2023-05-16T06:35:45;12.32;;;1.70;;
32216;SDS011;67098;51.140;4.088;2023-05-16T06:38:14;12.90;;;2.47;;
32216;SDS011;67098;51.140;4.088;2023-05-16T06:40:40;11.48;;;2.22;;
32216;SDS011;67098;51.140;4.088;2023-05-16T06:43:06;9.60;;;1.77;;
32216;SDS011;67098;51.140;4.088;2023-05-16T06:45:32;16.00;;;2.10;;
32216;SDS011;67098;51.140;4.088;2023-05-16T06:47:57;13.10;;;2.08;;
32216;SDS011;67098;51.140;4.088;2023-05-16T06:50:23;9.15;;;1.60;;
32216;SDS011;67098;51.140;4.088;2023-05-16T06:52:49;12.02;;;1.67;;
32216;SDS011;67098;51.140;4.088;2023-05-16T06:55:15;15.00;;;2.38;;
32216;SDS011;67098;51.140;4.088;2023-05-16T06:57:41;16.08;;;2.33;;
32216;SDS011;67098;51.140;4.088;2023-05-16T07:00:06;10.90;;;1.77;;
32216;SDS011;67098;51.140;4.088;2023-05-16T07:02:33;11.27;;;2.33;;
32216;SDS011;67098;51.140;4.088;2023-05-16T07:04:59;10.57;;;1.90;;
32216;SDS011;67098;51.140;4.088;2023-05-16T07:07:25;10.35;;;1.88;;
32216;SDS011;67098;51.140;4.088;2023-05-16T07:09:51;9.75;;;1.60;;
32216;SDS011;67098;51.140;4.088;2023-05-16T07:12:17;7.40;;;1.67;;
32216;SDS011;67098;51.140;4.088;2023-05-16T07:14:42;15.57;;;2.13;;
32216;SDS011;67098;51.140;4.088;2023-05-16T07:17:08;7.80;;;1.58;;
32216;SDS011;67098;51.140;4.088;2023-05-16T07:19:35;10.02;;;1.88;;
32216;SDS011;67098;51.140;4.088;2023-05-16T07:22:01;10.57;;;1.60;;
32216;SDS011;67098;51.140;4.088;2023-05-16T07:24:27;11.85;;;2.45;;
32216;SDS011;67098;51.140;4.088;2023-05-16T07:26:52;11.38;;;1.98;;
32216;SDS011;67098;51.140;4.088;2023-05-16T07:29:18;10.73;;;1.75;;
32216;SDS011;67098;51.140;4.088;2023-05-16T07:31:43;10.35;;;1.65;;
32216;SDS011;67098;51.140;4.088;2023-05-16T07:34:09;9.88;;;1.30;;
32216;SDS011;67098;51.140;4.088;2023-05-16T07:36:36;8.63;;;1.30;;
32216;SDS011;67098;51.140;4.088;2023-05-16T07:39:02;7.30;;;1.58;;
32216;SDS011;67098;51.140;4.088;2023-05-16T07:41:29;11.07;;;1.65;;
32216;SDS011;67098;51.140;4.088;2023-05-16T07:43:55;11.63;;;1.55;;
32216;SDS011;67098;51.140;4.088;2023-05-16T07:46:21;12.32;;;1.70;;
32216;SDS011;67098;51.140;4.088;2023-05-16T07:48:47;8.65;;;1.60;;
32216;SDS011;67098;51.140;4.088;2023-05-16T07:51:14;9.57;;;1.60;;
32216;SDS011;67098;51.140;4.088;2023-05-16T07:53:39;10.70;;;1.60;;
32216;SDS011;67098;51.140;4.088;2023-05-16T07:56:06;9.45;;;1.80;;
32216;SDS011;67098;51.140;4.088;2023-05-16T07:58:32;12.13;;;1.60;;
32216;SDS011;67098;51.140;4.088;2023-05-16T08:00:58;9.73;;;1.33;;
32216;SDS011;67098;51.140;4.088;2023-05-16T08:03:25;4.32;;;1.10;;
32216;SDS011;67098;51.140;4.088;2023-05-16T08:05:51;8.20;;;1.40;;
32216;SDS011;67098;51.140;4.088;2023-05-16T08:08:16;9.05;;;1.13;;
32216;SDS011;67098;51.140;4.088;2023-05-16T08:10:42;4.95;;;1.20;;
32216;SDS011;67098;51.140;4.088;2023-05-16T08:13:08;8.68;;;1.45;;
32216;SDS011;67098;51.140;4.088;2023-05-16T08:15:33;7.88;;;1.17;;
32216;SDS011;67098;51.140;4.088;2023-05-16T08:17:59;6.10;;;0.95;;
32216;SDS011;67098;51.140;4.088;2023-05-16T08:20:25;9.75;;;1.30;;
32216;SDS011;67098;51.140;4.088;2023-05-16T08:22:52;5.75;;;1.15;;
32216;SDS011;67098;51.140;4.088;2023-05-16T08:25:18;7.43;;;1.00;;
32216;SDS011;67098;51.140;4.088;2023-05-16T08:27:44;6.68;;;0.93;;
32216;SDS011;67098;51.140;4.088;2023-05-16T08:30:11;7.82;;;1.25;;
32216;SDS011;67098;51.140;4.088;2023-05-16T08:32:37;7.57;;;1.45;;
32216;SDS011;67098;51.140;4.088;2023-05-16T08:35:04;5.75;;;1.15;;
32216;SDS011;67098;51.140;4.088;2023-05-16T08:37:30;8.07;;;1.30;;
32216;SDS011;67098;51.140;4.088;2023-05-16T08:39:57;8.15;;;1.30;;
32216;SDS011;67098;51.140;4.088;2023-05-16T08:42:22;4.78;;;1.40;;
32216;SDS011;67098;51.140;4.088;2023-05-16T08:44:48;5.53;;;1.10;;
32216;SDS011;67098;51.140;4.088;2023-05-16T08:47:17;5.97;;;1.08;;
32216;SDS011;67098;51.140;4.088;2023-05-16T08:49:48;6.32;;;1.08;;
32216;SDS011;67098;51.140;4.088;2023-05-16T08:52:17;5.90;;;1.10;;
32216;SDS011;67098;51.140;4.088;2023-05-16T08:54:45;7.75;;;1.38;;
32216;SDS011;67098;51.140;4.088;2023-05-16T08:57:11;8.48;;;1.35;;
32216;SDS011;67098;51.140;4.088;2023-05-16T08:59:39;6.13;;;1.25;;
32216;SDS011;67098;51.140;4.088;2023-05-16T09:02:05;4.97;;;1.65;;
32216;SDS011;67098;51.140;4.088;2023-05-16T09:04:32;7.55;;;1.85;;
32216;SDS011;67098;51.140;4.088;2023-05-16T09:06:57;3.25;;;0.85;;
32216;SDS011;67098;51.140;4.088;2023-05-16T09:09:23;5.78;;;1.10;;
32216;SDS011;67098;51.140;4.088;2023-05-16T09:11:49;5.50;;;1.33;;
32216;SDS011;67098;51.140;4.088;2023-05-16T09:14:15;5.22;;;1.02;;
32216;SDS011;67098;51.140;4.088;2023-05-16T09:16:40;3.65;;;0.95;;
32216;SDS011;67098;51.140;4.088;2023-05-16T09:19:06;4.97;;;1.25;;
32216;SDS011;67098;51.140;4.088;2023-05-16T09:21:36;10.90;;;1.20;;
32216;SDS011;67098;51.140;4.088;2023-05-16T09:24:02;6.85;;;0.98;;
32216;SDS011;67098;51.140;4.088;2023-05-16T09:26:28;8.45;;;1.15;;
32216;SDS011;67098;51.140;4.088;2023-05-16T09:28:55;3.13;;;0.93;;
32216;SDS011;67098;51.140;4.088;2023-05-16T09:31:22;8.15;;;1.58;;
32216;SDS011;67098;51.140;4.088;2023-05-16T09:33:52;10.95;;;1.42;;
32216;SDS011;67098;51.140;4.088;2023-05-16T09:36:20;6.15;;;1.10;;
32216;SDS011;67098;51.140;4.088;2023-05-16T09:38:46;5.95;;;1.55;;
32216;SDS011;67098;51.140;4.088;2023-05-16T09:41:12;4.40;;;1.20;;
32216;SDS011;67098;51.140;4.088;2023-05-16T09:43:38;7.40;;;1.40;;
32216;SDS011;67098;51.140;4.088;2023-05-16T09:46:05;5.35;;;1.05;;
32216;SDS011;67098;51.140;4.088;2023-05-16T09:48:31;5.00;;;1.10;;
32216;SDS011;67098;51.140;4.088;2023-05-16T09:50:57;5.05;;;0.88;;
32216;SDS011;67098;51.140;4.088;2023-05-16T09:56:03;5.38;;;1.23;;
32216;SDS011;67098;51.140;4.088;2023-05-16T09:58:32;5.57;;;1.20;;
32216;SDS011;67098;51.140;4.088;2023-05-16T10:00:59;5.85;;;1.48;;
32216;SDS011;67098;51.140;4.088;2023-05-16T10:03:25;6.53;;;1.25;;
32216;SDS011;67098;51.140;4.088;2023-05-16T10:05:52;5.57;;;1.25;;
32216;SDS011;67098;51.140;4.088;2023-05-16T10:08:19;5.07;;;0.88;;
32216;SDS011;67098;51.140;4.088;2023-05-16T10:10:47;6.38;;;1.23;;
32216;SDS011;67098;51.140;4.088;2023-05-16T10:13:17;7.25;;;1.05;;
32216;SDS011;67098;51.140;4.088;2023-05-16T10:15:50;7.30;;;1.67;;
32216;SDS011;67098;51.140;4.088;2023-05-16T10:18:20;4.25;;;1.00;;
32216;SDS011;67098;51.140;4.088;2023-05-16T10:20:48;5.10;;;1.08;;
32216;SDS011;67098;51.140;4.088;2023-05-16T10:23:18;7.00;;;1.00;;
32216;SDS011;67098;51.140;4.088;2023-05-16T10:25:46;5.15;;;1.10;;
32216;SDS011;67098;51.140;4.088;2023-05-16T10:28:13;10.52;;;1.30;;
32216;SDS011;67098;51.140;4.088;2023-05-16T10:30:41;4.05;;;1.00;;
32216;SDS011;67098;51.140;4.088;2023-05-16T10:33:09;8.13;;;1.40;;
32216;SDS011;67098;51.140;4.088;2023-05-16T10:35:44;4.63;;;1.08;;
32216;SDS011;67098;51.140;4.088;2023-05-16T10:38:11;5.80;;;0.90;;
32216;SDS011;67098;51.140;4.088;2023-05-16T10:40:39;7.65;;;1.33;;
32216;SDS011;67098;51.140;4.088;2023-05-16T10:43:05;7.85;;;1.40;;
32216;SDS011;67098;51.140;4.088;2023-05-16T10:45:32;6.63;;;1.23;;
32216;SDS011;67098;51.140;4.088;2023-05-16T10:48:00;5.18;;;0.95;;
32216;SDS011;67098;51.140;4.088;2023-05-16T10:50:41;3.90;;;1.00;;
32216;SDS011;67098;51.140;4.088;2023-05-16T10:53:29;5.18;;;1.30;;
32216;SDS011;67098;51.140;4.088;2023-05-16T10:58:23;6.40;;;0.90;;
32216;SDS011;67098;51.140;4.088;2023-05-16T11:01:16;2.70;;;0.80;;
32216;SDS011;67098;51.140;4.088;2023-05-16T11:11:45;5.85;;;0.77;;
32216;SDS011;67098;51.140;4.088;2023-05-16T11:14:20;5.93;;;1.25;;
32216;SDS011;67098;51.140;4.088;2023-05-16T11:27:34;5.20;;;0.95;;
32216;SDS011;67098;51.140;4.088;2023-05-16T11:32:30;2.20;;;0.90;;
32216;SDS011;67098;51.140;4.088;2023-05-16T11:35:00;3.25;;;0.70;;
32216;SDS011;67098;51.140;4.088;2023-05-16T11:37:29;3.88;;;0.90;;
32216;SDS011;67098;51.140;4.088;2023-05-16T11:40:13;7.07;;;1.15;;
32216;SDS011;67098;51.140;4.088;2023-05-16T11:42:42;3.30;;;0.98;;
32216;SDS011;67098;51.140;4.088;2023-05-16T11:45:18;4.32;;;0.93;;
32216;SDS011;67098;51.140;4.088;2023-05-16T11:47:51;3.45;;;0.90;;
32216;SDS011;67098;51.140;4.088;2023-05-16T11:50:17;4.57;;;1.10;;
32216;SDS011;67098;51.140;4.088;2023-05-16T11:52:49;5.00;;;0.88;;
32216;SDS011;67098;51.140;4.088;2023-05-16T11:55:21;5.78;;;1.02;;
32216;SDS011;67098;51.140;4.088;2023-05-16T11:57:52;9.98;;;1.02;;
32216;SDS011;67098;51.140;4.088;2023-05-16T12:00:19;7.40;;;1.63;;
32216;SDS011;67098;51.140;4.088;2023-05-16T12:02:46;4.90;;;1.23;;
32216;SDS011;67098;51.140;4.088;2023-05-16T12:05:16;4.82;;;1.00;;
32216;SDS011;67098;51.140;4.088;2023-05-16T12:07:44;7.20;;;1.00;;
32216;SDS011;67098;51.140;4.088;2023-05-16T12:10:12;9.05;;;1.27;;
32216;SDS011;67098;51.140;4.088;2023-05-16T12:12:40;6.57;;;1.38;;
32216;SDS011;67098;51.140;4.088;2023-05-16T12:15:11;5.65;;;1.08;;
32216;SDS011;67098;51.140;4.088;2023-05-16T12:17:38;4.43;;;0.90;;
32216;SDS011;67098;51.140;4.088;2023-05-16T12:20:05;5.72;;;0.98;;
32216;SDS011;67098;51.140;4.088;2023-05-16T12:22:40;3.53;;;0.80;;
32216;SDS011;67098;51.140;4.088;2023-05-16T12:27:57;4.38;;;0.88;;
32216;SDS011;67098;51.140;4.088;2023-05-16T12:30:24;5.78;;;1.10;;
32216;SDS011;67098;51.140;4.088;2023-05-16T12:32:58;3.78;;;0.85;;
32216;SDS011;67098;51.140;4.088;2023-05-16T12:35:29;4.95;;;0.93;;
32216;SDS011;67098;51.140;4.088;2023-05-16T12:37:57;4.50;;;1.10;;
32216;SDS011;67098;51.140;4.088;2023-05-16T12:40:23;4.88;;;1.20;;
32216;SDS011;67098;51.140;4.088;2023-05-16T12:42:53;4.25;;;1.02;;
32216;SDS011;67098;51.140;4.088;2023-05-16T12:45:20;4.45;;;1.02;;
32216;SDS011;67098;51.140;4.088;2023-05-16T12:47:47;5.53;;;1.20;;
32216;SDS011;67098;51.140;4.088;2023-05-16T12:50:14;6.80;;;1.33;;
32216;SDS011;67098;51.140;4.088;2023-05-16T12:52:48;6.63;;;1.10;;
32216;SDS011;67098;51.140;4.088;2023-05-16T12:55:15;5.68;;;1.17;;
32216;SDS011;67098;51.140;4.088;2023-05-16T12:57:45;5.73;;;1.20;;
32216;SDS011;67098;51.140;4.088;2023-05-16T13:00:12;4.55;;;1.10;;
32216;SDS011;67098;51.140;4.088;2023-05-16T13:02:39;6.25;;;1.17;;
32216;SDS011;67098;51.140;4.088;2023-05-16T13:05:06;5.25;;;1.17;;
32216;SDS011;67098;51.140;4.088;2023-05-16T13:07:32;6.10;;;0.90;;
32216;SDS011;67098;51.140;4.088;2023-05-16T13:09:59;5.53;;;1.50;;
32216;SDS011;67098;51.140;4.088;2023-05-16T13:12:25;5.43;;;1.20;;
32216;SDS011;67098;51.140;4.088;2023-05-16T13:14:51;4.95;;;1.10;;
32216;SDS011;67098;51.140;4.088;2023-05-16T13:17:17;4.55;;;0.93;;
32216;SDS011;67098;51.140;4.088;2023-05-16T13:19:43;4.30;;;0.93;;
32216;SDS011;67098;51.140;4.088;2023-05-16T13:22:09;4.68;;;1.00;;
32216;SDS011;67098;51.140;4.088;2023-05-16T13:24:35;4.13;;;1.05;;
32216;SDS011;67098;51.140;4.088;2023-05-16T13:27:01;6.30;;;1.10;;
32216;SDS011;67098;51.140;4.088;2023-05-16T13:29:26;7.10;;;1.52;;
32216;SDS011;67098;51.140;4.088;2023-05-16T13:31:52;4.18;;;0.77;;
32216;SDS011;67098;51.140;4.088;2023-05-16T13:34:18;4.57;;;0.85;;
32216;SDS011;67098;51.140;4.088;2023-05-16T13:36:45;4.80;;;1.17;;
32216;SDS011;67098;51.140;4.088;2023-05-16T13:39:11;7.18;;;0.85;;
32216;SDS011;67098;51.140;4.088;2023-05-16T13:41:37;5.47;;;1.35;;
32216;SDS011;67098;51.140;4.088;2023-05-16T13:44:05;7.78;;;1.13;;
32216;SDS011;67098;51.140;4.088;2023-05-16T13:46:30;5.85;;;1.15;;
32216;SDS011;67098;51.140;4.088;2023-05-16T13:48:57;6.00;;;1.13;;
32216;SDS011;67098;51.140;4.088;2023-05-16T13:51:23;2.22;;;0.90;;
32216;SDS011;67098;51.140;4.088;2023-05-16T13:53:49;5.18;;;1.27;;
32216;SDS011;67098;51.140;4.088;2023-05-16T13:56:14;4.38;;;1.05;;
32216;SDS011;67098;51.140;4.088;2023-05-16T13:58:40;6.53;;;1.20;;
32216;SDS011;67098;51.140;4.088;2023-05-16T14:01:06;5.45;;;1.33;;
32216;SDS011;67098;51.140;4.088;2023-05-16T14:03:31;2.58;;;0.90;;
32216;SDS011;67098;51.140;4.088;2023-05-16T14:06:00;3.15;;;0.80;;
32216;SDS011;67098;51.140;4.088;2023-05-16T14:08:26;4.75;;;0.93;;
32216;SDS011;67098;51.140;4.088;2023-05-16T14:10:53;6.82;;;1.00;;
32216;SDS011;67098;51.140;4.088;2023-05-16T14:13:18;3.42;;;0.90;;
32216;SDS011;67098;51.140;4.088;2023-05-16T14:15:45;4.40;;;1.00;;
32216;SDS011;67098;51.140;4.088;2023-05-16T14:18:10;3.22;;;0.98;;
32216;SDS011;67098;51.140;4.088;2023-05-16T14:20:37;4.05;;;0.98;;
32216;SDS011;67098;51.140;4.088;2023-05-16T14:23:04;3.58;;;0.98;;
32216;SDS011;67098;51.140;4.088;2023-05-16T14:25:30;5.80;;;1.38;;
32216;SDS011;67098;51.140;4.088;2023-05-16T14:27:56;7.53;;;1.38;;
32216;SDS011;67098;51.140;4.088;2023-05-16T14:30:21;4.45;;;0.95;;
32216;SDS011;67098;51.140;4.088;2023-05-16T14:32:47;5.28;;;1.15;;
32216;SDS011;67098;51.140;4.088;2023-05-16T14:35:13;3.60;;;1.10;;
32216;SDS011;67098;51.140;4.088;2023-05-16T14:37:39;4.65;;;1.35;;
32216;SDS011;67098;51.140;4.088;2023-05-16T14:40:05;6.22;;;1.10;;
32216;SDS011;67098;51.140;4.088;2023-05-16T14:42:33;5.35;;;0.95;;
32216;SDS011;67098;51.140;4.088;2023-05-16T14:44:58;4.50;;;1.10;;
32216;SDS011;67098;51.140;4.088;2023-05-16T14:47:25;6.47;;;1.83;;
32216;SDS011;67098;51.140;4.088;2023-05-16T14:49:52;4.47;;;0.93;;
32216;SDS011;67098;51.140;4.088;2023-05-16T14:52:18;4.75;;;1.20;;
32216;SDS011;67098;51.140;4.088;2023-05-16T14:54:44;4.40;;;1.00;;
32216;SDS011;67098;51.140;4.088;2023-05-16T14:57:10;5.10;;;1.10;;
32216;SDS011;67098;51.140;4.088;2023-05-16T14:59:36;4.15;;;0.93;;
32216;SDS011;67098;51.140;4.088;2023-05-16T15:02:01;4.97;;;1.13;;
32216;SDS011;67098;51.140;4.088;2023-05-16T15:04:28;3.90;;;1.20;;
32216;SDS011;67098;51.140;4.088;2023-05-16T15:06:54;5.70;;;1.30;;
32216;SDS011;67098;51.140;4.088;2023-05-16T15:09:20;5.32;;;0.90;;
32216;SDS011;67098;51.140;4.088;2023-05-16T15:11:46;3.75;;;0.95;;
32216;SDS011;67098;51.140;4.088;2023-05-16T15:14:11;3.25;;;0.80;;
32216;SDS011;67098;51.140;4.088;2023-05-16T15:16:37;2.53;;;0.80;;
32216;SDS011;67098;51.140;4.088;2023-05-16T15:19:03;3.95;;;0.65;;
32216;SDS011;67098;51.140;4.088;2023-05-16T15:21:29;1.73;;;0.80;;